createdAt,value
2018-01-29T00:00:02.887Z,102711.00
2018-01-29T00:00:26.617Z,102714.52
2018-01-29T00:00:50.359Z,102719.84
2018-01-29T00:01:14.093Z,102718.08
2018-01-29T00:01:38.221Z,102717.19
2018-01-29T00:02:02.058Z,102716.75
2018-01-29T00:02:26.084Z,102717.58
2018-01-29T00:02:50.140Z,102715.79
2018-01-29T00:03:13.889Z,102715.86
2018-01-29T00:03:37.624Z,102713.12
2018-01-29T00:04:01.352Z,102714.52
2018-01-29T00:04:25.093Z,102716.69
2018-01-29T00:04:48.661Z,102720.64
2018-01-29T00:05:12.437Z,102714.03
2018-01-29T00:05:36.424Z,102702.49
2018-01-29T00:06:00.170Z,102706.95
2018-01-29T00:06:23.935Z,102711.37
2018-01-29T00:06:47.957Z,102716.75
2018-01-29T00:07:12.008Z,102702.16
2018-01-29T00:07:35.840Z,102707.87
2018-01-29T00:07:59.309Z,102710.53
2018-01-29T00:08:23.044Z,102707.91
2018-01-29T00:08:46.793Z,102709.24
2018-01-29T00:09:10.520Z,102712.37
2018-01-29T00:09:34.276Z,102709.70
2018-01-29T00:09:58.034Z,102707.05
2018-01-29T00:10:21.799Z,102706.61
2018-01-29T00:10:45.530Z,102710.61
2018-01-29T00:11:09.276Z,102712.80
2018-01-29T00:11:33.008Z,102711.90
2018-01-29T00:11:56.409Z,102715.42
2018-01-29T00:12:20.145Z,102708.77
2018-01-29T00:12:43.891Z,102706.58
2018-01-29T00:13:07.960Z,102711.87
2018-01-29T00:13:31.397Z,102711.44
2018-01-29T00:13:55.188Z,102707.81
2018-01-29T00:14:18.932Z,102710.03
2018-01-29T00:14:42.989Z,102707.87
2018-01-29T00:15:06.727Z,102710.47
2018-01-29T00:15:30.468Z,102705.62
2018-01-29T00:15:54.233Z,102706.91
2018-01-29T00:16:17.976Z,102706.91
2018-01-29T00:16:41.703Z,102700.70
2018-01-29T00:17:05.427Z,102708.67
2018-01-29T00:17:29.172Z,102713.53
2018-01-29T00:17:52.940Z,102705.55
2018-01-29T00:18:16.774Z,102703.75
2018-01-29T00:18:40.799Z,102710.87
2018-01-29T00:19:04.543Z,102701.53
2018-01-29T00:19:28.281Z,102705.52
2018-01-29T00:19:52.076Z,102702.42
2018-01-29T00:20:15.895Z,102700.23
2018-01-29T00:20:39.637Z,102705.12
2018-01-29T00:21:03.376Z,102699.38
2018-01-29T00:21:27.205Z,102701.16
2018-01-29T00:21:50.945Z,102698.94
2018-01-29T00:22:14.703Z,102692.32
2018-01-29T00:22:37.807Z,102694.95
2018-01-29T00:23:01.832Z,102693.16
2018-01-29T00:23:25.871Z,102696.70
2018-01-29T00:23:49.628Z,102701.16
2018-01-29T00:24:13.150Z,102694.58
2018-01-29T00:24:36.873Z,102695.05
2018-01-29T00:25:00.693Z,102695.48
2018-01-29T00:25:24.715Z,102691.52
2018-01-29T00:25:48.369Z,102695.91
2018-01-29T00:26:12.821Z,102695.05
2018-01-29T00:26:37.259Z,102689.30
2018-01-29T00:27:01.059Z,102695.05
2018-01-29T00:27:24.795Z,102688.87
2018-01-29T00:27:48.238Z,102698.17
2018-01-29T00:28:11.980Z,102694.19
2018-01-29T00:28:35.841Z,102693.32
2018-01-29T00:28:59.581Z,102689.36
2018-01-29T00:29:23.038Z,102687.17
2018-01-29T00:29:46.773Z,102690.73
2018-01-29T00:30:10.195Z,102686.27
2018-01-29T00:30:33.937Z,102689.36
2018-01-29T00:30:57.672Z,102688.47
2018-01-29T00:31:21.727Z,102686.27
2018-01-29T00:31:45.484Z,102684.95
2018-01-29T00:32:09.243Z,102688.03
2018-01-29T00:32:33.066Z,102689.77
2018-01-29T00:32:56.487Z,102685.77
2018-01-29T00:33:20.254Z,102686.67
2018-01-29T00:33:44.077Z,102687.97
2018-01-29T00:34:07.816Z,102687.11
2018-01-29T00:34:31.552Z,102685.77
2018-01-29T00:34:55.552Z,102684.88
2018-01-29T00:35:19.580Z,102685.34
2018-01-29T00:35:43.634Z,102682.22
2018-01-29T00:36:07.635Z,102681.32
2018-01-29T00:36:31.099Z,102679.98
2018-01-29T00:36:54.838Z,102674.24
2018-01-29T00:37:18.567Z,102676.44
2018-01-29T00:37:42.627Z,102681.75
2018-01-29T00:38:06.368Z,102674.24
2018-01-29T00:38:30.120Z,102679.95
2018-01-29T00:38:53.880Z,102681.75
2018-01-29T00:39:17.607Z,102683.52
2018-01-29T00:39:41.345Z,102680.36
2018-01-29T00:40:05.094Z,102682.61
2018-01-29T00:40:28.876Z,102676.87
2018-01-29T00:40:52.624Z,102676.87
2018-01-29T00:41:16.428Z,102676.44
2018-01-29T00:41:40.440Z,102681.29
2018-01-29T00:42:04.462Z,102676.87
2018-01-29T00:42:28.475Z,102676.44
2018-01-29T00:42:52.573Z,102680.42
2018-01-29T00:43:16.341Z,102681.32
2018-01-29T00:43:40.403Z,102679.56
2018-01-29T00:44:04.509Z,102681.78
2018-01-29T00:44:28.263Z,102680.03
2018-01-29T00:44:51.983Z,102677.80
2018-01-29T00:45:15.713Z,102685.31
2018-01-29T00:45:39.451Z,102675.57
2018-01-29T00:46:02.516Z,102680.89
2018-01-29T00:46:26.292Z,102684.02
2018-01-29T00:46:50.303Z,102685.77
2018-01-29T00:47:14.315Z,102680.03
2018-01-29T00:47:38.340Z,102681.78
2018-01-29T00:48:02.456Z,102682.69
2018-01-29T00:48:26.208Z,102680.45
2018-01-29T00:48:49.651Z,102688.44
2018-01-29T00:49:13.508Z,102683.16
2018-01-29T00:49:37.267Z,102683.58
2018-01-29T00:50:01.320Z,102686.23
2018-01-29T00:50:25.338Z,102680.95
2018-01-29T00:50:48.791Z,102684.48
2018-01-29T00:51:12.525Z,102687.61
2018-01-29T00:51:36.269Z,102683.61
2018-01-29T00:52:00.309Z,102684.05
2018-01-29T00:52:23.815Z,102683.61
2018-01-29T00:52:47.825Z,102685.84
2018-01-29T00:53:11.555Z,102678.83
2018-01-29T00:53:35.291Z,102684.08
2018-01-29T00:53:59.027Z,102685.41
2018-01-29T00:54:22.774Z,102683.25
2018-01-29T00:54:46.506Z,102686.73
2018-01-29T00:55:10.225Z,102684.08
2018-01-29T00:55:34.010Z,102680.52
2018-01-29T00:55:57.521Z,102676.53
2018-01-29T00:56:21.295Z,102679.27
2018-01-29T00:56:45.038Z,102682.35
2018-01-29T00:57:08.480Z,102679.27
2018-01-29T00:57:32.228Z,102674.84
2018-01-29T00:57:55.959Z,102677.97
2018-01-29T00:58:19.406Z,102678.83
2018-01-29T00:58:42.863Z,102671.78
2018-01-29T00:59:06.422Z,102672.68
2018-01-29T00:59:29.959Z,102670.92
2018-01-29T00:59:53.404Z,102676.67
2018-01-29T01:00:17.175Z,102679.43
2018-01-29T01:00:40.911Z,102675.84
2018-01-29T01:01:04.164Z,102668.30
2018-01-29T01:01:30.787Z,102676.23
2018-01-29T01:01:54.434Z,102673.18
2018-01-29T01:02:18.191Z,102672.72
2018-01-29T01:02:41.994Z,102678.03
2018-01-29T01:03:06.043Z,102678.03
2018-01-29T01:03:29.845Z,102673.61
2018-01-29T01:03:53.339Z,102672.72
2018-01-29T01:04:17.075Z,102676.70
2018-01-29T01:04:40.845Z,102670.52
2018-01-29T01:05:03.629Z,102668.73
2018-01-29T01:05:27.348Z,102671.02
2018-01-29T01:05:50.727Z,102667.06
2018-01-29T01:06:14.483Z,102672.42
2018-01-29T01:06:38.212Z,102668.00
2018-01-29T01:07:01.951Z,102672.02
2018-01-29T01:07:25.960Z,102671.19
2018-01-29T01:07:49.966Z,102672.52
2018-01-29T01:08:14.892Z,102666.77
2018-01-29T01:08:38.327Z,102660.55
2018-01-29T01:09:02.172Z,102666.70
2018-01-29T01:09:25.912Z,102664.01
2018-01-29T01:09:49.976Z,102672.02
2018-01-29T01:10:13.707Z,102667.10
2018-01-29T01:10:36.764Z,102671.13
2018-01-29T01:11:00.210Z,102667.56
2018-01-29T01:11:23.251Z,102673.31
2018-01-29T01:11:46.987Z,102659.16
2018-01-29T01:12:10.759Z,102659.59
2018-01-29T01:12:34.786Z,102671.55
2018-01-29T01:12:58.805Z,102671.09
2018-01-29T01:13:22.840Z,102665.34
2018-01-29T01:13:46.611Z,102665.77
2018-01-29T01:14:10.343Z,102663.11
2018-01-29T01:14:34.152Z,102663.58
2018-01-29T01:14:57.965Z,102662.65
2018-01-29T01:15:21.731Z,102663.98
2018-01-29T01:15:45.735Z,102658.66
2018-01-29T01:16:09.774Z,102664.41
2018-01-29T01:16:33.518Z,102663.05
2018-01-29T01:16:57.255Z,102666.60
2018-01-29T01:17:20.995Z,102658.98
2018-01-29T01:17:44.746Z,102655.00
2018-01-29T01:18:08.479Z,102670.48
2018-01-29T01:18:32.226Z,102667.83
2018-01-29T01:18:55.986Z,102665.60
2018-01-29T01:19:19.900Z,102667.80
2018-01-29T01:19:43.639Z,102662.02
2018-01-29T01:20:07.135Z,102662.88
2018-01-29T01:20:30.911Z,102663.77
2018-01-29T01:20:54.660Z,102660.65
2018-01-29T01:21:18.384Z,102663.77
2018-01-29T01:21:42.111Z,102660.22
2018-01-29T01:22:05.838Z,102661.48
2018-01-29T01:22:29.569Z,102660.65
2018-01-29T01:22:53.303Z,102657.49
2018-01-29T01:23:17.037Z,102657.92
2018-01-29T01:23:40.788Z,102657.45
2018-01-29T01:24:04.530Z,102658.32
2018-01-29T01:24:28.584Z,102661.84
2018-01-29T01:24:52.336Z,102656.95
2018-01-29T01:25:15.804Z,102651.64
2018-01-29T01:25:39.590Z,102654.27
2018-01-29T01:26:03.341Z,102655.09
2018-01-29T01:26:26.783Z,102657.82
2018-01-29T01:26:50.543Z,102656.03
2018-01-29T01:27:14.279Z,102656.03
2018-01-29T01:27:38.022Z,102659.08
2018-01-29T01:28:01.783Z,102665.33
2018-01-29T01:28:25.199Z,102659.08
2018-01-29T01:28:48.994Z,102656.42
2018-01-29T01:29:12.715Z,102656.42
2018-01-29T01:29:36.464Z,102658.69
2018-01-29T01:30:00.240Z,102658.25
2018-01-29T01:30:23.720Z,102659.52
2018-01-29T01:30:47.467Z,102661.74
2018-01-29T01:31:11.214Z,102656.39
2018-01-29T01:31:34.970Z,102662.17
2018-01-29T01:31:58.695Z,102660.81
2018-01-29T01:32:22.436Z,102657.25
2018-01-29T01:32:46.188Z,102659.48
2018-01-29T01:33:09.915Z,102658.62
2018-01-29T01:33:33.680Z,102662.17
2018-01-29T01:33:57.440Z,102657.36
2018-01-29T01:34:21.189Z,102659.52
2018-01-29T01:34:44.723Z,102661.81
2018-01-29T01:35:08.475Z,102653.87
2018-01-29T01:35:32.255Z,102648.12
2018-01-29T01:35:56.291Z,102655.20
2018-01-29T01:36:20.299Z,102657.85
2018-01-29T01:36:44.312Z,102658.75
2018-01-29T01:37:08.079Z,102658.29
2018-01-29T01:37:31.803Z,102658.29
2018-01-29T01:37:55.536Z,102653.87
2018-01-29T01:38:19.259Z,102658.29
2018-01-29T01:38:42.707Z,102661.81
2018-01-29T01:39:06.462Z,102655.16
2018-01-29T01:39:30.192Z,102656.06
2018-01-29T01:39:53.933Z,102662.28
2018-01-29T01:40:17.658Z,102659.61
2018-01-29T01:40:41.487Z,102658.75
2018-01-29T01:41:05.248Z,102661.38
2018-01-29T01:41:28.999Z,102663.57
2018-01-29T01:41:52.736Z,102664.90
2018-01-29T01:42:16.472Z,102662.61
2018-01-29T01:42:39.898Z,102658.25
2018-01-29T01:43:03.718Z,102662.28
2018-01-29T01:43:27.458Z,102657.82
2018-01-29T01:43:51.191Z,102657.39
2018-01-29T01:44:14.988Z,102658.72
2018-01-29T01:44:38.428Z,102651.20
2018-01-29T01:45:01.889Z,102660.52
2018-01-29T01:45:25.671Z,102654.30
2018-01-29T01:45:49.481Z,102653.87
2018-01-29T01:46:13.211Z,102656.06
2018-01-29T01:46:36.990Z,102652.53
2018-01-29T01:47:01.010Z,102657.39
2018-01-29T01:47:24.691Z,102655.59
2018-01-29T01:47:48.523Z,102657.82
2018-01-29T01:48:11.938Z,102664.94
2018-01-29T01:48:35.967Z,102663.57
2018-01-29T01:48:59.972Z,102654.27
2018-01-29T01:49:30.910Z,102654.20
2018-01-29T01:49:55.060Z,102657.36
2018-01-29T01:50:18.808Z,102663.14
2018-01-29T01:50:42.283Z,102664.00
2018-01-29T01:51:05.863Z,102655.16
2018-01-29T01:51:29.884Z,102656.95
2018-01-29T01:51:53.939Z,102659.19
2018-01-29T01:52:17.952Z,102661.84
2018-01-29T01:52:41.963Z,102661.88
2018-01-29T01:53:05.455Z,102664.97
2018-01-29T01:53:29.387Z,102661.41
2018-01-29T01:53:53.142Z,102663.61
2018-01-29T01:54:16.867Z,102664.50
2018-01-29T01:54:40.198Z,102662.31
2018-01-29T01:55:03.695Z,102664.50
2018-01-29T01:55:27.444Z,102661.88
2018-01-29T01:55:51.239Z,102660.08
2018-01-29T01:56:14.986Z,102662.28
2018-01-29T01:56:38.760Z,102658.29
2018-01-29T01:57:02.792Z,102660.52
2018-01-29T01:57:26.895Z,102656.95
2018-01-29T01:57:50.641Z,102663.14
2018-01-29T01:58:14.162Z,102664.47
2018-01-29T01:58:37.893Z,102659.58
2018-01-29T01:59:01.684Z,102653.37
2018-01-29T01:59:25.705Z,102656.49
2018-01-29T01:59:49.732Z,102652.03
2018-01-29T02:00:13.062Z,102664.00
2018-01-29T02:00:36.462Z,102651.17
2018-01-29T02:01:00.222Z,102655.59
2018-01-29T02:01:23.675Z,102660.02
2018-01-29T02:01:47.756Z,102654.70
2018-01-29T02:02:11.187Z,102652.44
2018-01-29T02:02:34.963Z,102655.09
2018-01-29T02:02:58.714Z,102654.27
2018-01-29T02:03:22.171Z,102655.16
2018-01-29T02:03:45.910Z,102654.70
2018-01-29T02:04:09.687Z,102647.19
2018-01-29T02:04:33.751Z,102648.95
2018-01-29T02:04:57.507Z,102652.94
2018-01-29T02:05:21.239Z,102647.62
2018-01-29T02:05:44.981Z,102643.99
2018-01-29T02:06:08.761Z,102644.42
2018-01-29T02:06:32.617Z,102649.31
2018-01-29T02:06:56.678Z,102656.82
2018-01-29T02:07:20.113Z,102647.08
2018-01-29T02:07:43.849Z,102645.28
2018-01-29T02:08:06.943Z,102642.20
2018-01-29T02:08:30.668Z,102639.54
2018-01-29T02:08:54.404Z,102635.98
2018-01-29T02:09:17.883Z,102635.08
2018-01-29T02:09:41.820Z,102635.08
2018-01-29T02:10:04.862Z,102632.86
2018-01-29T02:10:28.629Z,102630.20
2018-01-29T02:10:52.075Z,102640.41
2018-01-29T02:11:15.171Z,102635.48
2018-01-29T02:11:38.993Z,102628.87
2018-01-29T02:12:02.765Z,102624.45
2018-01-29T02:12:26.494Z,102632.86
2018-01-29T02:12:50.525Z,102630.20
2018-01-29T02:13:14.541Z,102631.99
2018-01-29T02:13:38.557Z,102633.79
2018-01-29T02:14:01.328Z,102629.80
2018-01-29T02:14:25.078Z,102621.39
2018-01-29T02:14:48.810Z,102623.58
2018-01-29T02:15:12.543Z,102620.95
2018-01-29T02:15:36.280Z,102625.38
2018-01-29T02:16:00.068Z,102621.45
2018-01-29T02:16:23.889Z,102624.12
2018-01-29T02:16:47.627Z,102623.19
2018-01-29T02:17:11.391Z,102619.70
2018-01-29T02:17:34.907Z,102630.80
2018-01-29T02:17:58.647Z,102631.70
2018-01-29T02:18:22.367Z,102624.62
2018-01-29T02:18:46.414Z,102622.89
2018-01-29T02:19:10.519Z,102633.95
2018-01-29T02:19:34.299Z,102623.79
2018-01-29T02:19:58.336Z,102624.25
2018-01-29T02:20:22.351Z,102624.69
2018-01-29T02:20:46.441Z,102620.27
2018-01-29T02:21:10.207Z,102620.70
2018-01-29T02:21:33.365Z,102618.94
2018-01-29T02:21:57.408Z,102623.42
2018-01-29T02:22:21.220Z,102615.88
2018-01-29T02:22:44.702Z,102619.87
2018-01-29T02:23:08.476Z,102626.52
2018-01-29T02:23:31.554Z,102618.54
2018-01-29T02:23:55.336Z,102625.19
2018-01-29T02:24:18.767Z,102615.88
2018-01-29T02:24:42.557Z,102621.59
2018-01-29T02:25:06.282Z,102612.29
2018-01-29T02:25:30.321Z,102615.38
2018-01-29T02:25:54.131Z,102618.94
2018-01-29T02:26:17.655Z,102614.48
2018-01-29T02:26:41.424Z,102615.38
2018-01-29T02:27:04.871Z,102613.63
2018-01-29T02:27:28.611Z,102613.63
2018-01-29T02:27:52.399Z,102609.59
2018-01-29T02:28:16.196Z,102611.82
2018-01-29T02:28:39.539Z,102616.25
2018-01-29T02:29:03.292Z,102607.41
2018-01-29T02:29:27.135Z,102612.29
2018-01-29T02:29:51.250Z,102611.39
2018-01-29T02:30:15.169Z,102611.82
2018-01-29T02:30:38.865Z,102607.84
2018-01-29T02:31:01.955Z,102603.84
2018-01-29T02:31:25.734Z,102601.62
2018-01-29T02:31:49.466Z,102603.37
2018-01-29T02:32:13.304Z,102615.81
2018-01-29T02:32:37.127Z,102607.41
2018-01-29T02:33:01.266Z,102607.41
2018-01-29T02:33:25.023Z,102609.63
2018-01-29T02:33:48.139Z,102605.64
2018-01-29T02:34:12.153Z,102607.91
2018-01-29T02:34:35.930Z,102600.86
2018-01-29T02:34:59.391Z,102599.96
2018-01-29T02:35:23.177Z,102602.19
2018-01-29T02:35:47.054Z,102599.13
2018-01-29T02:36:11.143Z,102599.59
2018-01-29T02:36:34.685Z,102595.68
2018-01-29T02:36:58.275Z,102602.72
2018-01-29T02:37:21.917Z,102599.27
2018-01-29T02:37:45.168Z,102587.73
2018-01-29T02:38:08.904Z,102601.50
2018-01-29T02:38:32.339Z,102592.63
2018-01-29T02:38:55.374Z,102593.09
2018-01-29T02:39:19.126Z,102593.98
2018-01-29T02:39:42.929Z,102594.84
2018-01-29T02:40:06.933Z,102590.47
2018-01-29T02:40:30.951Z,102587.38
2018-01-29T02:40:54.555Z,102590.93
2018-01-29T02:41:18.332Z,102592.33
2018-01-29T02:41:42.076Z,102584.39
2018-01-29T02:42:05.837Z,102593.23
2018-01-29T02:42:29.322Z,102589.27
2018-01-29T02:42:53.097Z,102578.20
2018-01-29T02:43:16.899Z,102584.42
2018-01-29T02:43:40.418Z,102583.13
2018-01-29T02:44:04.259Z,102582.70
2018-01-29T02:44:28.060Z,102578.70
2018-01-29T02:44:51.836Z,102577.45
2018-01-29T02:45:15.695Z,102578.78
2018-01-29T02:45:39.339Z,102573.45
2018-01-29T02:46:02.928Z,102571.70
2018-01-29T02:46:26.492Z,102571.23
2018-01-29T02:46:49.735Z,102570.38
2018-01-29T02:47:12.838Z,102571.70
2018-01-29T02:47:36.871Z,102573.89
2018-01-29T02:48:00.723Z,102569.94
2018-01-29T02:48:24.041Z,102573.03
2018-01-29T02:48:47.589Z,102569.47
2018-01-29T02:49:11.209Z,102571.70
2018-01-29T02:49:34.977Z,102567.64
2018-01-29T02:49:59.308Z,102566.31
2018-01-29T02:50:22.927Z,102574.72
2018-01-29T02:50:46.513Z,102567.17
2018-01-29T02:51:10.065Z,102567.64
2018-01-29T02:51:33.644Z,102561.50
2018-01-29T02:51:56.887Z,102563.29
2018-01-29T02:52:20.429Z,102554.42
2018-01-29T02:52:44.764Z,102560.59
2018-01-29T02:53:08.253Z,102566.84
2018-01-29T02:53:31.804Z,102563.33
2018-01-29T02:53:55.366Z,102558.87
2018-01-29T02:54:18.917Z,102565.95
2018-01-29T02:54:42.599Z,102565.05
2018-01-29T02:55:06.130Z,102564.16
2018-01-29T02:55:29.752Z,102559.27
2018-01-29T02:55:53.323Z,102564.59
2018-01-29T02:56:16.924Z,102563.72
2018-01-29T02:56:40.529Z,102567.25
2018-01-29T02:57:03.435Z,102565.91
2018-01-29T02:57:27.166Z,102563.19
2018-01-29T02:57:50.837Z,102559.63
2018-01-29T02:58:14.384Z,102557.41
2018-01-29T02:58:38.033Z,102565.34
2018-01-29T02:59:01.640Z,102561.83
2018-01-29T02:59:24.891Z,102558.27
2018-01-29T02:59:48.626Z,102560.89
2018-01-29T03:00:12.129Z,102556.01
2018-01-29T03:00:35.852Z,102555.11
2018-01-29T03:00:59.620Z,102559.53
2018-01-29T03:01:23.055Z,102552.02
2018-01-29T03:01:46.860Z,102551.05
2018-01-29T03:02:10.664Z,102555.04
2018-01-29T03:02:34.489Z,102553.71
2018-01-29T03:02:58.501Z,102555.91
2018-01-29T03:03:22.574Z,102563.02
2018-01-29T03:03:46.326Z,102553.67
2018-01-29T03:04:10.063Z,102549.26
2018-01-29T03:04:33.826Z,102547.06
2018-01-29T03:04:57.626Z,102548.36
2018-01-29T03:05:21.360Z,102540.84
2018-01-29T03:05:44.803Z,102546.13
2018-01-29T03:06:08.547Z,102544.84
2018-01-29T03:06:31.608Z,102537.76
2018-01-29T03:06:55.460Z,102542.25
2018-01-29T03:07:19.498Z,102541.81
2018-01-29T03:07:43.250Z,102545.80
2018-01-29T03:08:06.861Z,102548.47
2018-01-29T03:08:30.667Z,102540.92
2018-01-29T03:08:54.411Z,102544.05
2018-01-29T03:09:18.520Z,102546.27
2018-01-29T03:09:42.279Z,102540.98
2018-01-29T03:10:05.475Z,102545.84
2018-01-29T03:10:29.286Z,102540.09
2018-01-29T03:10:53.350Z,102545.41
2018-01-29T03:11:17.370Z,102539.66
2018-01-29T03:11:41.386Z,102545.45
2018-01-29T03:12:04.831Z,102544.55
2018-01-29T03:12:28.605Z,102543.25
2018-01-29T03:12:52.596Z,102544.11
2018-01-29T03:13:16.442Z,102540.12
2018-01-29T03:13:40.173Z,102538.36
2018-01-29T03:14:03.541Z,102542.78
2018-01-29T03:14:27.331Z,102540.12
2018-01-29T03:14:51.381Z,102546.34
2018-01-29T03:15:15.119Z,102545.45
2018-01-29T03:15:38.853Z,102542.75
2018-01-29T03:16:02.570Z,102540.12
2018-01-29T03:16:26.327Z,102538.36
2018-01-29T03:16:50.073Z,102545.84
2018-01-29T03:17:13.852Z,102535.67
2018-01-29T03:17:37.598Z,102547.17
2018-01-29T03:18:01.352Z,102542.72
2018-01-29T03:18:25.169Z,102544.51
2018-01-29T03:18:49.193Z,102547.13
2018-01-29T03:19:13.208Z,102547.13
2018-01-29T03:19:37.095Z,102538.30
2018-01-29T03:20:01.160Z,102540.92
2018-01-29T03:20:25.202Z,102541.31
2018-01-29T03:20:49.024Z,102543.58
2018-01-29T03:21:12.106Z,102539.52
2018-01-29T03:21:36.129Z,102543.61
2018-01-29T03:22:00.201Z,102534.31
2018-01-29T03:22:24.383Z,102539.95
2018-01-29T03:22:48.120Z,102540.42
2018-01-29T03:23:12.228Z,102536.43
2018-01-29T03:23:35.996Z,102542.64
2018-01-29T03:23:59.076Z,102538.66
2018-01-29T03:24:23.201Z,102538.19
2018-01-29T03:24:46.934Z,102529.78
2018-01-29T03:25:10.449Z,102534.67
2018-01-29T03:25:34.183Z,102539.52
2018-01-29T03:25:57.939Z,102543.51
2018-01-29T03:26:21.666Z,102529.31
2018-01-29T03:26:45.072Z,102539.09
2018-01-29T03:27:08.876Z,102532.02
2018-01-29T03:27:32.688Z,102532.44
2018-01-29T03:27:56.408Z,102530.68
2018-01-29T03:28:20.225Z,102533.34
2018-01-29T03:28:44.064Z,102532.44
2018-01-29T03:29:07.515Z,102529.78
2018-01-29T03:29:31.326Z,102530.65
2018-01-29T03:29:55.079Z,102534.20
2018-01-29T03:30:18.889Z,102532.88
2018-01-29T03:30:42.965Z,102532.38
2018-01-29T03:31:07.041Z,102538.12
2018-01-29T03:31:30.871Z,102523.50
2018-01-29T03:31:55.015Z,102531.01
2018-01-29T03:32:18.835Z,102522.96
2018-01-29T03:32:42.287Z,102519.84
2018-01-29T03:33:06.009Z,102526.91
2018-01-29T03:33:29.808Z,102526.91
2018-01-29T03:33:53.324Z,102526.02
2018-01-29T03:34:17.115Z,102529.54
2018-01-29T03:34:40.890Z,102525.55
2018-01-29T03:35:04.934Z,102529.07
2018-01-29T03:35:28.386Z,102532.16
2018-01-29T03:35:52.116Z,102519.77
2018-01-29T03:36:15.941Z,102521.99
2018-01-29T03:36:39.719Z,102516.20
2018-01-29T03:37:03.147Z,102521.52
2018-01-29T03:37:26.956Z,102521.99
2018-01-29T03:37:50.715Z,102524.66
2018-01-29T03:38:14.743Z,102522.86
2018-01-29T03:38:38.831Z,102517.58
2018-01-29T03:39:02.307Z,102518.00
2018-01-29T03:39:26.061Z,102522.89
2018-01-29T03:39:49.793Z,102515.34
2018-01-29T03:40:13.796Z,102518.44
2018-01-29T03:40:37.272Z,102517.11
2018-01-29T03:41:01.011Z,102522.86
2018-01-29T03:41:24.793Z,102515.78
2018-01-29T03:41:48.570Z,102521.09
2018-01-29T03:42:12.006Z,102520.66
2018-01-29T03:42:35.756Z,102519.33
2018-01-29T03:42:59.502Z,102517.54
2018-01-29T03:43:23.332Z,102525.05
2018-01-29T03:43:47.132Z,102532.16
2018-01-29T03:44:10.891Z,102521.89
2018-01-29T03:44:35.103Z,102525.48
2018-01-29T03:44:58.881Z,102523.72
2018-01-29T03:45:22.621Z,102521.95
2018-01-29T03:45:46.633Z,102525.05
2018-01-29T03:46:10.835Z,102522.82
2018-01-29T03:46:34.568Z,102522.82
2018-01-29T03:46:58.615Z,102528.14
2018-01-29T03:47:22.695Z,102527.17
2018-01-29T03:47:46.491Z,102525.84
2018-01-29T03:48:10.540Z,102529.80
2018-01-29T03:48:34.697Z,102532.88
2018-01-29T03:48:58.445Z,102525.37
2018-01-29T03:49:22.026Z,102524.95
2018-01-29T03:49:45.791Z,102529.80
2018-01-29T03:50:09.592Z,102526.23
2018-01-29T03:50:33.136Z,102519.62
2018-01-29T03:50:56.855Z,102520.09
2018-01-29T03:51:20.617Z,102524.52
2018-01-29T03:51:44.364Z,102532.48
2018-01-29T03:52:07.838Z,102524.48
2018-01-29T03:52:31.571Z,102531.59
2018-01-29T03:52:55.423Z,102526.73
2018-01-29T03:53:19.549Z,102520.06
2018-01-29T03:53:42.987Z,102526.70
2018-01-29T03:54:06.870Z,102521.42
2018-01-29T03:54:30.713Z,102519.20
2018-01-29T03:54:54.612Z,102519.20
2018-01-29T03:55:18.376Z,102515.67
2018-01-29T03:55:42.397Z,102522.75
2018-01-29T03:56:06.462Z,102519.20
2018-01-29T03:56:30.152Z,102526.27
2018-01-29T03:56:53.522Z,102526.23
2018-01-29T03:57:17.295Z,102523.19
2018-01-29T03:57:40.728Z,102526.27
2018-01-29T03:58:04.463Z,102520.48
2018-01-29T03:58:27.973Z,102526.70
2018-01-29T03:58:51.993Z,102526.67
2018-01-29T03:59:15.730Z,102524.91
2018-01-29T03:59:39.482Z,102524.48
2018-01-29T04:00:03.237Z,102524.95
2018-01-29T04:00:27.107Z,102521.81
2018-01-29T04:00:50.602Z,102522.68
2018-01-29T04:01:14.324Z,102531.98
2018-01-29T04:01:38.348Z,102530.66
2018-01-29T04:02:02.504Z,102530.66
2018-01-29T04:02:26.295Z,102526.67
2018-01-29T04:02:50.316Z,102533.31
2018-01-29T04:03:14.319Z,102526.23
2018-01-29T04:03:38.378Z,102524.44
2018-01-29T04:04:02.168Z,102529.33
2018-01-29T04:04:25.606Z,102521.78
2018-01-29T04:04:49.452Z,102519.16
2018-01-29T04:05:13.264Z,102521.78
2018-01-29T04:05:37.293Z,102516.93
2018-01-29T04:06:01.352Z,102521.34
2018-01-29T04:06:25.196Z,102524.01
2018-01-29T04:06:49.295Z,102516.89
2018-01-29T04:07:13.078Z,102523.54
2018-01-29T04:07:36.552Z,102526.13
2018-01-29T04:08:00.323Z,102524.80
2018-01-29T04:08:24.096Z,102523.54
2018-01-29T04:08:48.134Z,102520.45
2018-01-29T04:09:12.252Z,102516.46
2018-01-29T04:09:35.999Z,102514.67
2018-01-29T04:09:59.883Z,102522.58
2018-01-29T04:10:23.031Z,102519.92
2018-01-29T04:10:46.476Z,102520.78
2018-01-29T04:11:10.271Z,102527.00
2018-01-29T04:11:34.071Z,102525.20
2018-01-29T04:11:58.087Z,102525.20
2018-01-29T04:12:22.282Z,102525.20
2018-01-29T04:12:46.043Z,102523.40
2018-01-29T04:13:10.083Z,102525.59
2018-01-29T04:13:34.151Z,102525.16
2018-01-29T04:13:57.910Z,102523.83
2018-01-29T04:14:21.650Z,102525.16
2018-01-29T04:14:45.500Z,102535.33
2018-01-29T04:15:09.247Z,102527.78
2018-01-29T04:15:33.001Z,102521.61
2018-01-29T04:15:57.017Z,102521.64
2018-01-29T04:16:21.086Z,102520.31
2018-01-29T04:16:44.839Z,102527.42
2018-01-29T04:17:08.662Z,102517.66
2018-01-29T04:17:32.396Z,102520.78
2018-01-29T04:17:56.179Z,102528.72
2018-01-29T04:18:19.984Z,102522.53
2018-01-29T04:18:43.504Z,102529.15
2018-01-29T04:19:07.236Z,102522.97
2018-01-29T04:19:31.027Z,102526.53
2018-01-29T04:19:54.419Z,102523.40
2018-01-29T04:20:18.177Z,102522.50
2018-01-29T04:20:41.929Z,102520.27
2018-01-29T04:21:05.939Z,102521.17
2018-01-29T04:21:29.469Z,102520.74
2018-01-29T04:21:53.206Z,102521.17
2018-01-29T04:22:16.937Z,102520.70
2018-01-29T04:22:40.785Z,102523.36
2018-01-29T04:23:04.809Z,102526.45
2018-01-29T04:23:28.819Z,102522.47
2018-01-29T04:23:52.847Z,102524.23
2018-01-29T04:24:16.857Z,102518.91
2018-01-29T04:24:40.318Z,102518.91
2018-01-29T04:25:03.696Z,102519.73
2018-01-29T04:25:27.159Z,102521.03
2018-01-29T04:25:50.883Z,102521.93
2018-01-29T04:26:13.942Z,102521.93
2018-01-29T04:26:37.812Z,102523.22
2018-01-29T04:27:01.277Z,102516.58
2018-01-29T04:27:25.007Z,102519.70
2018-01-29T04:27:48.724Z,102515.25
2018-01-29T04:28:12.792Z,102518.34
2018-01-29T04:28:36.529Z,102515.68
2018-01-29T04:29:00.259Z,102510.79
2018-01-29T04:29:24.004Z,102515.68
2018-01-29T04:29:47.764Z,102515.64
2018-01-29T04:30:11.599Z,102511.22
2018-01-29T04:30:35.690Z,102513.02
2018-01-29T04:30:59.730Z,102506.80